createdAt,value
2018-02-10T00:01:48.929Z,59.10
2018-02-10T00:04:19.716Z,54.40
2018-02-10T00:06:50.479Z,56.93
2018-02-10T00:09:22.327Z,51.80
2018-02-10T00:11:53.088Z,49.63
2018-02-10T00:14:23.880Z,52.67
2018-02-10T00:16:54.628Z,54.90
2018-02-10T00:19:25.396Z,53.43
2018-02-10T00:21:56.136Z,55.43
2018-02-10T00:24:27.023Z,59.00
2018-02-10T00:26:57.808Z,56.27
2018-02-10T00:29:28.695Z,56.83
2018-02-10T00:31:59.583Z,54.23
2018-02-10T00:34:30.595Z,58.33
2018-02-10T00:37:01.436Z,54.38
2018-02-10T00:39:32.565Z,49.67
2018-02-10T00:42:03.458Z,58.45
2018-02-10T00:44:34.272Z,53.57
2018-02-10T00:47:05.199Z,54.20
2018-02-10T00:49:36.308Z,60.67
2018-02-10T00:52:07.452Z,48.47
2018-02-10T00:54:38.498Z,59.50
2018-02-10T00:57:09.408Z,60.40
2018-02-10T00:59:40.195Z,57.70
2018-02-10T01:02:10.968Z,57.20
2018-02-10T01:04:41.727Z,53.10
2018-02-10T01:07:12.479Z,46.30
2018-02-10T01:09:43.368Z,53.13
2018-02-10T01:12:14.124Z,53.60
2018-02-10T01:14:44.902Z,51.83
2018-02-10T01:17:15.776Z,51.83
2018-02-10T01:19:46.574Z,56.27
2018-02-10T01:22:17.326Z,58.03
2018-02-10T01:24:48.123Z,57.70
2018-02-10T01:27:18.906Z,54.27
2018-02-10T01:29:49.667Z,54.17
2018-02-10T01:32:20.410Z,56.50
2018-02-10T01:34:51.204Z,51.03
2018-02-10T01:37:21.953Z,53.83
2018-02-10T01:39:52.703Z,56.30
2018-02-10T01:42:23.455Z,57.10
2018-02-10T01:44:54.247Z,56.20
2018-02-10T01:47:25.018Z,57.53
2018-02-10T01:50:08.012Z,55.00
2018-02-10T01:52:38.781Z,58.95
2018-02-10T01:55:09.556Z,50.10
2018-02-10T01:57:40.306Z,50.37
2018-02-10T02:00:11.112Z,53.00
2018-02-10T02:02:41.850Z,60.50
2018-02-10T02:05:12.622Z,48.43
2018-02-10T02:07:43.385Z,55.23
2018-02-10T02:10:14.220Z,54.93
2018-02-10T02:12:45.019Z,59.17
2018-02-10T02:15:15.812Z,53.57
2018-02-10T02:17:46.582Z,60.53
2018-02-10T02:20:17.401Z,64.97
2018-02-10T02:22:48.169Z,63.37
2018-02-10T02:25:18.952Z,55.00
2018-02-10T02:27:49.696Z,60.00
2018-02-10T02:30:20.511Z,57.03
2018-02-10T02:32:51.256Z,63.27
2018-02-10T02:35:22.024Z,56.80
2018-02-10T02:37:52.764Z,59.43
2018-02-10T02:40:23.533Z,71.13
2018-02-10T02:42:54.301Z,50.50
2018-02-10T02:45:25.044Z,62.70
2018-02-10T02:47:55.776Z,68.63
2018-02-10T02:50:26.538Z,62.17
2018-02-10T02:52:57.284Z,61.70
2018-02-10T02:55:28.057Z,65.07
2018-02-10T02:57:58.796Z,73.53
2018-02-10T03:00:29.536Z,70.37
2018-02-10T03:03:00.284Z,63.37
2018-02-10T03:05:31.036Z,64.40
2018-02-10T03:08:01.801Z,63.20
2018-02-10T03:10:32.593Z,59.23
2018-02-10T03:13:03.356Z,69.03
2018-02-10T03:15:34.112Z,65.87
2018-02-10T03:18:04.864Z,58.83
2018-02-10T03:20:35.653Z,68.20
2018-02-10T03:23:11.140Z,58.50
2018-02-10T03:25:41.892Z,68.35
2018-02-10T03:28:12.642Z,63.07
2018-02-10T03:30:43.399Z,65.33
2018-02-10T03:33:14.144Z,67.70
2018-02-10T03:35:44.899Z,73.40
2018-02-10T03:38:15.660Z,62.93
2018-02-10T03:40:46.440Z,68.37
2018-02-10T03:43:17.231Z,65.20
2018-02-10T03:45:47.977Z,60.00
2018-02-10T03:48:18.724Z,58.30
2018-02-10T03:50:49.500Z,67.53
2018-02-10T03:53:20.252Z,76.00
2018-02-10T03:55:51.005Z,62.67
2018-02-10T03:58:22.840Z,67.27
2018-02-10T04:00:53.621Z,69.43
2018-02-10T04:03:24.377Z,60.40
2018-02-10T04:05:55.176Z,68.73
2018-02-10T04:08:25.904Z,67.70
2018-02-10T04:10:56.656Z,74.10
2018-02-10T04:13:27.380Z,71.10
2018-02-10T04:15:58.290Z,76.00
2018-02-10T04:18:29.024Z,69.17
2018-02-10T04:20:59.776Z,78.60
2018-02-10T04:23:30.500Z,60.50
2018-02-10T04:26:01.273Z,66.33
2018-02-10T04:28:32.008Z,68.57
2018-02-10T04:31:02.792Z,71.00
2018-02-10T04:33:33.533Z,74.93
2018-02-10T04:36:04.297Z,76.40
2018-02-10T04:38:35.028Z,73.13
2018-02-10T04:41:05.812Z,85.77
2018-02-10T04:43:36.561Z,76.27
2018-02-10T04:46:07.316Z,72.93
2018-02-10T04:48:38.052Z,79.90
2018-02-10T04:51:08.834Z,70.87
2018-02-10T04:53:39.580Z,68.40
2018-02-10T04:56:10.366Z,75.00
2018-02-10T04:58:41.118Z,72.93
2018-02-10T05:01:17.065Z,74.03
2018-02-10T05:03:47.841Z,80.78
2018-02-10T05:06:18.643Z,69.53
2018-02-10T05:08:49.445Z,71.70
2018-02-10T05:11:20.248Z,73.53
2018-02-10T05:13:51.008Z,69.80
2018-02-10T05:16:21.813Z,82.40
2018-02-10T05:18:58.411Z,76.67
2018-02-10T05:21:29.187Z,66.05
2018-02-10T05:23:59.943Z,82.53
2018-02-10T05:26:30.748Z,65.87
2018-02-10T05:29:01.513Z,73.73
2018-02-10T05:31:32.321Z,70.27
2018-02-10T05:34:03.095Z,71.83
2018-02-10T05:36:33.864Z,78.20
2018-02-10T05:39:04.615Z,71.13
2018-02-10T05:41:35.427Z,70.87
2018-02-10T05:44:06.193Z,70.17
2018-02-10T05:46:37.010Z,66.90
2018-02-10T05:49:07.772Z,79.93
2018-02-10T05:51:38.552Z,82.23
2018-02-10T05:54:20.575Z,77.53
2018-02-10T05:56:51.357Z,71.62
2018-02-10T05:59:22.112Z,77.93
2018-02-10T06:01:52.878Z,64.57
2018-02-10T06:04:23.620Z,77.27
2018-02-10T06:06:54.380Z,69.53
2018-02-10T06:09:25.136Z,67.60
2018-02-10T06:11:55.880Z,80.43
2018-02-10T06:14:26.617Z,71.70
2018-02-10T06:16:57.371Z,81.77
2018-02-10T06:19:28.126Z,70.93
2018-02-10T06:21:59.044Z,76.10
2018-02-10T06:24:29.792Z,70.20
2018-02-10T06:27:00.554Z,70.30
2018-02-10T06:29:33.412Z,71.93
2018-02-10T06:32:04.180Z,71.57
2018-02-10T06:34:34.926Z,65.20
2018-02-10T06:37:05.672Z,67.50
2018-02-10T06:39:43.388Z,70.13
2018-02-10T06:42:14.164Z,73.97
2018-02-10T06:44:44.911Z,74.27
2018-02-10T06:47:15.667Z,69.80
2018-02-10T06:49:46.404Z,71.73
2018-02-10T06:52:17.189Z,68.83
2018-02-10T06:54:47.921Z,72.90
2018-02-10T06:57:18.664Z,66.73
2018-02-10T06:59:49.622Z,66.10
2018-02-10T07:02:20.632Z,63.93
2018-02-10T07:04:51.388Z,71.80
2018-02-10T07:07:22.161Z,85.73
2018-02-10T07:09:52.949Z,76.70
2018-02-10T07:12:23.760Z,76.13
2018-02-10T07:14:54.530Z,71.57
2018-02-10T07:17:25.296Z,76.83
2018-02-10T07:19:56.046Z,75.93
2018-02-10T07:22:26.984Z,71.60
2018-02-10T07:24:57.753Z,73.73
2018-02-10T07:27:28.517Z,77.37
2018-02-10T07:29:59.340Z,73.97
2018-02-10T07:32:30.148Z,71.70
2018-02-10T07:35:01.162Z,77.53
2018-02-10T07:37:34.521Z,74.68
2018-02-10T07:40:05.288Z,86.85
2018-02-10T07:42:36.081Z,74.63
2018-02-10T07:45:06.829Z,75.03
2018-02-10T07:47:37.629Z,79.20
2018-02-10T07:50:08.415Z,71.87
2018-02-10T07:52:39.184Z,71.73
2018-02-10T07:55:09.935Z,67.87
2018-02-10T07:57:40.732Z,65.30
2018-02-10T08:00:11.497Z,74.53
2018-02-10T08:02:42.275Z,73.33
2018-02-10T08:05:13.017Z,73.67
2018-02-10T08:07:43.837Z,65.37
2018-02-10T08:10:14.600Z,72.27
2018-02-10T08:12:45.372Z,80.07
2018-02-10T08:15:16.124Z,67.17
2018-02-10T08:17:51.513Z,74.10
2018-02-10T08:20:22.282Z,74.28
2018-02-10T08:22:53.056Z,67.83
2018-02-10T08:25:30.935Z,64.67
2018-02-10T08:28:01.700Z,71.35
2018-02-10T08:30:32.503Z,73.67
2018-02-10T08:33:03.288Z,69.90
2018-02-10T08:35:34.072Z,67.50
2018-02-10T08:38:04.864Z,64.83
2018-02-10T08:40:35.693Z,73.93
2018-02-10T08:43:10.983Z,70.17
2018-02-10T08:45:42.393Z,69.22
2018-02-10T08:51:16.193Z,70.43
2018-02-10T08:53:52.753Z,68.68
2018-02-10T08:56:25.751Z,69.28
2018-02-10T08:58:56.613Z,70.12
2018-02-10T09:01:27.395Z,66.23
2018-02-10T09:03:59.149Z,65.63
2018-02-10T09:06:29.921Z,69.90
2018-02-10T09:09:00.676Z,63.40
2018-02-10T09:11:32.483Z,62.13
2018-02-10T09:14:10.277Z,69.43
2018-02-10T09:16:41.041Z,65.78
2018-02-10T09:22:34.889Z,67.25
2018-02-10T09:25:05.832Z,73.20
2018-02-10T09:27:36.694Z,61.73
2018-02-10T09:30:07.532Z,74.73
2018-02-10T09:32:38.369Z,65.50
2018-02-10T09:35:09.199Z,67.63
2018-02-10T09:37:40.074Z,71.90
2018-02-10T09:40:10.898Z,65.40
2018-02-10T09:42:41.775Z,61.10
2018-02-10T09:45:12.700Z,68.47
2018-02-10T09:47:43.570Z,65.80
2018-02-10T09:50:14.389Z,72.03
2018-02-10T09:52:45.295Z,72.60
2018-02-10T09:55:16.190Z,61.00
2018-02-10T09:57:47.091Z,60.30
2018-02-10T10:00:17.935Z,66.10
2018-02-10T10:02:48.822Z,71.07
2018-02-10T10:05:19.662Z,71.53
2018-02-10T10:07:50.666Z,66.47
2018-02-10T10:10:21.558Z,67.57
2018-02-10T10:12:52.392Z,65.93
2018-02-10T10:15:23.305Z,64.33
2018-02-10T10:17:55.691Z,63.53
2018-02-10T10:20:26.578Z,63.22
2018-02-10T10:22:57.470Z,71.10
2018-02-10T10:25:28.347Z,70.80
2018-02-10T10:27:59.231Z,65.73
2018-02-10T10:30:30.096Z,64.07
2018-02-10T10:33:01.114Z,65.77
2018-02-10T10:35:32.046Z,58.72
2018-02-10T10:38:03.466Z,65.53
2018-02-10T10:40:34.423Z,63.83
2018-02-10T10:43:05.138Z,62.90
2018-02-10T10:45:36.011Z,60.27
2018-02-10T10:48:06.873Z,64.77
2018-02-10T10:50:37.854Z,67.60
2018-02-10T10:53:08.720Z,77.10
2018-02-10T10:55:39.628Z,75.30
2018-02-10T10:58:10.494Z,68.37
2018-02-10T11:00:41.414Z,64.73
2018-02-10T11:03:13.388Z,57.80
2018-02-10T11:05:44.294Z,66.22
2018-02-10T11:08:15.154Z,63.70
2018-02-10T11:10:46.278Z,61.87
2018-02-10T11:13:17.078Z,60.75
2018-02-10T11:15:47.969Z,60.10
2018-02-10T11:18:18.928Z,58.23
2018-02-10T11:20:49.769Z,61.13
2018-02-10T11:23:20.593Z,63.40
2018-02-10T11:25:51.446Z,59.30
2018-02-10T11:28:22.326Z,62.77
2018-02-10T11:30:53.527Z,60.60
2018-02-10T11:33:26.370Z,63.80
2018-02-10T11:35:57.237Z,55.47
2018-02-10T11:38:28.498Z,56.37
2018-02-10T11:40:59.425Z,54.17
2018-02-10T11:43:30.292Z,60.50
2018-02-10T11:46:01.169Z,61.57
2018-02-10T11:48:32.020Z,64.60
2018-02-10T11:51:02.902Z,56.00
2018-02-10T11:53:33.933Z,56.07
2018-02-10T11:56:04.859Z,64.60
2018-02-10T11:58:35.703Z,58.17
2018-02-10T12:01:07.453Z,58.87
2018-02-10T12:03:38.310Z,61.03
2018-02-10T12:06:09.186Z,56.50
2018-02-10T12:08:40.023Z,58.50
2018-02-10T12:11:10.947Z,62.47
2018-02-10T12:13:41.773Z,61.10
2018-02-10T12:16:12.703Z,65.77
2018-02-10T12:18:43.549Z,59.27
2018-02-10T12:21:14.425Z,62.30
2018-02-10T12:23:45.221Z,64.30
2018-02-10T12:26:16.068Z,57.97
2018-02-10T12:28:46.873Z,63.17
2018-02-10T12:31:17.714Z,66.10
2018-02-10T12:33:48.537Z,60.53
2018-02-10T12:36:19.575Z,69.67
2018-02-10T12:38:50.406Z,64.80
2018-02-10T12:41:21.280Z,61.17
2018-02-10T12:43:52.086Z,61.57
2018-02-10T12:46:23.071Z,63.40
2018-02-10T12:51:56.822Z,60.85
2018-02-10T12:54:27.639Z,62.70
2018-02-10T12:56:58.642Z,65.53
2018-02-10T12:59:29.453Z,70.80
2018-02-10T13:02:00.390Z,81.40
2018-02-10T13:04:31.241Z,88.73
2018-02-10T13:07:02.233Z,74.30
2018-02-10T13:09:33.037Z,76.43
2018-02-10T13:12:03.865Z,65.40
2018-02-10T13:14:34.692Z,63.97
2018-02-10T13:17:05.600Z,62.87
2018-02-10T13:19:36.427Z,62.20
2018-02-10T13:22:07.292Z,62.47
2018-02-10T13:24:38.136Z,60.10
2018-02-10T13:27:09.078Z,65.83
2018-02-10T13:29:39.925Z,75.57
2018-02-10T13:32:10.810Z,66.67
2018-02-10T13:34:41.655Z,58.33
2018-02-10T13:37:12.513Z,66.60
2018-02-10T13:39:43.349Z,69.63
2018-02-10T13:42:14.156Z,59.47
2018-02-10T13:44:45.129Z,66.23
2018-02-10T13:47:15.998Z,66.17
2018-02-10T13:49:46.809Z,60.77
2018-02-10T13:52:17.690Z,67.70
2018-02-10T13:54:48.509Z,60.23
2018-02-10T13:57:19.365Z,70.97
2018-02-10T13:59:50.253Z,60.20
2018-02-10T14:02:21.081Z,62.30
2018-02-10T14:04:51.953Z,60.53
2018-02-10T14:07:22.822Z,65.03
2018-02-10T14:09:53.648Z,57.70
2018-02-10T14:12:24.508Z,70.20
2018-02-10T14:14:55.368Z,52.97
2018-02-10T14:17:26.239Z,62.33
2018-02-10T14:19:57.133Z,62.10
2018-02-10T14:22:27.981Z,62.17
2018-02-10T14:24:58.817Z,61.83
2018-02-10T14:27:29.711Z,58.23
2018-02-10T14:30:00.592Z,61.73
2018-02-10T14:32:31.505Z,61.73
2018-02-10T14:35:02.370Z,59.40
2018-02-10T14:37:33.266Z,70.70
2018-02-10T14:40:04.074Z,60.20
2018-02-10T14:42:34.958Z,60.57
2018-02-10T14:45:05.742Z,60.33
2018-02-10T14:47:36.639Z,55.57
2018-02-10T14:50:07.418Z,60.67
2018-02-10T14:52:38.301Z,62.80
2018-02-10T14:55:09.174Z,53.60
2018-02-10T14:57:40.025Z,53.30
2018-02-10T15:00:10.855Z,56.43
2018-02-10T15:02:41.790Z,60.20
2018-02-10T15:05:12.586Z,59.70
2018-02-10T15:07:43.522Z,70.13
2018-02-10T15:10:14.355Z,59.83
2018-02-10T15:12:45.162Z,55.80
2018-02-10T15:15:15.998Z,63.17
2018-02-10T15:17:46.890Z,60.30
2018-02-10T15:20:17.714Z,62.03
2018-02-10T15:22:48.570Z,65.67
2018-02-10T15:25:19.417Z,59.03
2018-02-10T15:27:50.262Z,59.90
2018-02-10T15:30:33.364Z,61.57
2018-02-10T15:33:16.330Z,57.35
2018-02-10T15:35:47.159Z,56.63
2018-02-10T15:38:17.974Z,57.27
2018-02-10T15:40:49.906Z,63.97
2018-02-10T15:43:20.711Z,65.57
2018-02-10T15:45:51.503Z,64.03
2018-02-10T15:48:22.348Z,61.17
2018-02-10T15:50:53.231Z,67.83
2018-02-10T15:53:24.076Z,62.73
2018-02-10T15:55:54.904Z,66.63
2018-02-10T15:58:25.908Z,66.90
2018-02-10T16:00:56.784Z,58.08
2018-02-10T16:03:27.684Z,61.57
2018-02-10T16:05:58.571Z,63.10
2018-02-10T16:08:29.580Z,59.37
2018-02-10T16:11:00.410Z,64.30
2018-02-10T16:13:31.316Z,65.87
2018-02-10T16:16:02.297Z,62.00
2018-02-10T16:18:33.191Z,57.88
2018-02-10T16:21:04.028Z,52.43
2018-02-10T16:23:34.908Z,54.73
2018-02-10T16:26:05.716Z,59.33
2018-02-10T16:28:36.609Z,54.80
2018-02-10T16:31:07.470Z,59.33
2018-02-10T16:33:38.355Z,60.37
2018-02-10T16:36:09.207Z,52.50
2018-02-10T16:38:40.071Z,56.00
2018-02-10T16:41:10.922Z,58.20
2018-02-10T16:43:41.821Z,55.77
2018-02-10T16:46:12.665Z,57.10
2018-02-10T16:48:43.542Z,55.00
2018-02-10T16:51:14.380Z,64.13
2018-02-10T16:53:45.280Z,58.53
2018-02-10T16:56:16.089Z,55.67
2018-02-10T16:58:46.968Z,55.30
2018-02-10T17:01:19.781Z,54.30
2018-02-10T17:03:50.651Z,49.38
2018-02-10T17:06:21.517Z,58.13
2018-02-10T17:08:52.364Z,56.33
2018-02-10T17:11:23.184Z,58.50
2018-02-10T17:13:54.041Z,53.60
2018-02-10T17:16:24.883Z,58.37
2018-02-10T17:18:55.734Z,48.43
2018-02-10T17:21:26.619Z,52.97
2018-02-10T17:23:57.530Z,53.70
2018-02-10T17:26:28.378Z,66.53
2018-02-10T17:28:59.209Z,48.30
2018-02-10T17:31:30.074Z,50.23
2018-02-10T17:34:00.906Z,50.77
2018-02-10T17:36:31.770Z,51.40
2018-02-10T17:39:02.681Z,63.60
2018-02-10T17:41:33.553Z,51.20
2018-02-10T17:44:04.382Z,59.53
2018-02-10T17:46:35.227Z,58.77
2018-02-10T17:49:06.267Z,54.17
2018-02-10T17:51:37.155Z,49.67
2018-02-10T17:54:07.999Z,57.50
2018-02-10T17:56:38.845Z,46.33
2018-02-10T17:59:09.710Z,48.77
2018-02-10T18:01:40.705Z,55.63
2018-02-10T18:04:11.542Z,62.22
2018-02-10T18:06:42.516Z,53.47
2018-02-10T18:09:13.368Z,61.10
2018-02-10T18:11:44.214Z,58.63
2018-02-10T18:14:15.139Z,55.77
2018-02-10T18:16:45.934Z,56.90
2018-02-10T18:19:16.808Z,49.30
2018-02-10T18:21:47.642Z,56.03
2018-02-10T18:24:19.231Z,48.83
2018-02-10T18:26:50.055Z,54.70
2018-02-10T18:29:20.836Z,53.37
2018-02-10T18:31:51.670Z,50.53
2018-02-10T18:34:22.477Z,54.50
2018-02-10T18:36:53.288Z,54.87
2018-02-10T18:39:24.232Z,58.10
2018-02-10T18:41:55.050Z,51.83
2018-02-10T18:44:25.888Z,50.60
2018-02-10T18:46:56.766Z,52.73
2018-02-10T18:49:27.623Z,56.40
2018-02-10T18:51:58.460Z,58.53
2018-02-10T18:54:29.338Z,50.07
2018-02-10T18:57:00.254Z,55.33
2018-02-10T18:59:31.662Z,54.33
2018-02-10T19:02:02.783Z,55.88
2018-02-10T19:04:33.696Z,61.65
2018-02-10T19:07:04.646Z,57.47
2018-02-10T19:09:35.636Z,55.17
2018-02-10T19:12:06.676Z,96.80
2018-02-10T19:14:37.531Z,58.40
2018-02-10T19:17:08.522Z,54.60
2018-02-10T19:19:39.374Z,54.35
2018-02-10T19:22:10.221Z,53.67
2018-02-10T19:24:41.049Z,62.63
2018-02-10T19:27:11.954Z,58.40
2018-02-10T19:29:42.811Z,63.93
2018-02-10T19:32:13.647Z,58.40
2018-02-10T19:34:44.492Z,53.77
2018-02-10T19:37:15.301Z,65.43
2018-02-10T19:39:46.167Z,64.30
2018-02-10T19:42:17.028Z,57.63
2018-02-10T19:44:47.913Z,62.30
2018-02-10T19:47:18.767Z,66.27
2018-02-10T19:49:49.688Z,60.53
2018-02-10T19:52:20.545Z,106.80
2018-02-10T19:54:51.465Z,71.93
2018-02-10T19:57:22.295Z,69.70
2018-02-10T19:59:53.237Z,68.03
2018-02-10T20:02:24.054Z,65.50
2018-02-10T20:04:54.931Z,62.27
2018-02-10T20:07:26.805Z,67.67
2018-02-10T20:09:57.631Z,71.75
2018-02-10T20:12:28.465Z,67.50
2018-02-10T20:14:59.310Z,64.97
2018-02-10T20:17:30.142Z,66.90
2018-02-10T20:20:01.983Z,66.87
2018-02-10T20:22:32.870Z,67.05
2018-02-10T20:25:03.753Z,71.33
2018-02-10T20:27:34.563Z,64.53
2018-02-10T20:30:05.431Z,63.30
2018-02-10T20:32:36.282Z,79.33
2018-02-10T20:35:07.154Z,74.10
2018-02-10T20:37:37.946Z,67.97
2018-02-10T20:40:08.870Z,71.73
2018-02-10T20:42:39.673Z,76.70
2018-02-10T20:45:10.511Z,65.33
2018-02-10T20:47:41.345Z,71.30
2018-02-10T20:50:12.233Z,63.73
2018-02-10T20:52:43.238Z,65.17
2018-02-10T20:55:14.108Z,56.03
2018-02-10T20:57:44.933Z,60.47
2018-02-10T21:00:15.828Z,63.47
2018-02-10T21:02:46.704Z,68.63
2018-02-10T21:05:18.562Z,63.80
2018-02-10T21:07:49.390Z,67.62
2018-02-10T21:10:20.194Z,68.13
2018-02-10T21:12:51.074Z,61.00
2018-02-10T21:15:21.932Z,77.73
2018-02-10T21:17:52.768Z,78.60
2018-02-10T21:20:24.096Z,101.33
2018-02-10T21:22:54.889Z,124.75
2018-02-10T21:25:25.732Z,141.27
2018-02-10T21:27:56.618Z,113.43
2018-02-10T21:30:27.526Z,116.67
2018-02-10T21:32:58.395Z,84.87
2018-02-10T21:35:29.253Z,85.30
2018-02-10T21:38:00.081Z,76.10
2018-02-10T21:40:30.998Z,55.20
2018-02-10T21:43:01.829Z,56.40
2018-02-10T21:45:32.670Z,46.73
2018-02-10T21:48:03.436Z,48.97
2018-02-10T21:50:34.344Z,44.00
2018-02-10T21:53:05.188Z,47.10
2018-02-10T21:55:36.118Z,45.03
2018-02-10T21:58:06.982Z,46.63
2018-02-10T22:00:37.903Z,46.63
2018-02-10T22:03:08.736Z,47.13
2018-02-10T22:05:39.589Z,45.33
2018-02-10T22:08:10.430Z,46.30
2018-02-10T22:10:42.271Z,51.23
2018-02-10T22:13:13.108Z,54.85
2018-02-10T22:15:44.023Z,43.43
2018-02-10T22:18:14.848Z,41.87
2018-02-10T22:20:45.721Z,42.30
2018-02-10T22:23:16.606Z,44.93
2018-02-10T22:25:47.456Z,47.20
2018-02-10T22:28:18.278Z,51.57
2018-02-10T22:30:49.145Z,46.53
2018-02-10T22:33:19.994Z,45.50
2018-02-10T22:35:50.853Z,42.57
2018-02-10T22:38:21.703Z,46.67
2018-02-10T22:40:52.618Z,52.97
2018-02-10T22:43:23.400Z,50.13
2018-02-10T22:45:54.286Z,46.03
2018-02-10T22:48:25.125Z,49.97
2018-02-10T22:50:55.969Z,53.63
2018-02-10T22:53:26.804Z,50.27
2018-02-10T22:55:57.957Z,43.67
2018-02-10T22:58:28.770Z,52.15
2018-02-10T23:01:05.654Z,48.23
2018-02-10T23:03:36.498Z,43.05
2018-02-10T23:06:07.358Z,57.63
2018-02-10T23:08:38.179Z,54.10
2018-02-10T23:11:09.113Z,57.30
2018-02-10T23:13:39.943Z,53.10
2018-02-10T23:16:10.876Z,51.40
2018-02-10T23:18:41.728Z,50.20
2018-02-10T23:21:12.666Z,56.10
2018-02-10T23:23:43.496Z,49.57
2018-02-10T23:26:14.425Z,49.37
2018-02-10T23:28:45.260Z,49.37
2018-02-10T23:31:16.124Z,51.63
2018-02-10T23:33:46.977Z,45.30
2018-02-10T23:36:17.863Z,40.70
2018-02-10T23:38:48.698Z,39.97
2018-02-10T23:41:19.560Z,45.70
2018-02-10T23:43:50.386Z,43.03
2018-02-10T23:46:21.270Z,42.37
2018-02-10T23:48:52.108Z,41.03
2018-02-10T23:51:23.009Z,43.90
2018-02-10T23:53:53.832Z,46.20
2018-02-10T23:56:24.737Z,44.17
2018-02-10T23:58:55.598Z,46.93
